sensor_id;sensor_type;location;lat;lon;timestamp;P1;durP1;ratioP1;P2;durP2;ratioP2
48847;SDS011;36611;51.638;5.784;2022-10-16T00:01:38;8.32;;;3.90;;
48847;SDS011;36611;51.638;5.784;2022-10-16T00:04:08;9.05;;;3.47;;
48847;SDS011;36611;51.638;5.784;2022-10-16T00:06:34;7.40;;;3.40;;
48847;SDS011;36611;51.638;5.784;2022-10-16T00:09:01;4.95;;;3.00;;
48847;SDS011;36611;51.638;5.784;2022-10-16T00:11:29;8.35;;;3.70;;
48847;SDS011;36611;51.638;5.784;2022-10-16T00:14:04;8.65;;;3.67;;
48847;SDS011;36611;51.638;5.784;2022-10-16T00:16:34;7.38;;;3.30;;
48847;SDS011;36611;51.638;5.784;2022-10-16T00:19:01;5.38;;;3.10;;
48847;SDS011;36611;51.638;5.784;2022-10-16T00:21:29;6.13;;;3.65;;
48847;SDS011;36611;51.638;5.784;2022-10-16T00:24:04;6.55;;;3.20;;
48847;SDS011;36611;51.638;5.784;2022-10-16T00:26:33;7.53;;;3.20;;
48847;SDS011;36611;51.638;5.784;2022-10-16T00:29:00;7.07;;;3.10;;
48847;SDS011;36611;51.638;5.784;2022-10-16T00:31:28;4.70;;;3.63;;
48847;SDS011;36611;51.638;5.784;2022-10-16T00:33:56;5.90;;;3.35;;
48847;SDS011;36611;51.638;5.784;2022-10-16T00:36:23;5.93;;;3.25;;
48847;SDS011;36611;51.638;5.784;2022-10-16T00:38:52;5.38;;;3.00;;
48847;SDS011;36611;51.638;5.784;2022-10-16T00:41:21;5.95;;;3.03;;
48847;SDS011;36611;51.638;5.784;2022-10-16T00:46:24;7.00;;;2.67;;
48847;SDS011;36611;51.638;5.784;2022-10-16T00:51:28;3.33;;;2.40;;
48847;SDS011;36611;51.638;5.784;2022-10-16T00:54:03;3.83;;;2.38;;
48847;SDS011;36611;51.638;5.784;2022-10-16T00:56:34;3.75;;;2.25;;
48847;SDS011;36611;51.638;5.784;2022-10-16T00:59:01;3.90;;;2.53;;
48847;SDS011;36611;51.638;5.784;2022-10-16T01:01:33;5.07;;;2.70;;
48847;SDS011;36611;51.638;5.784;2022-10-16T01:04:02;5.38;;;2.47;;
48847;SDS011;36611;51.638;5.784;2022-10-16T01:06:41;4.82;;;2.20;;
48847;SDS011;36611;51.638;5.784;2022-10-16T01:09:27;5.22;;;2.60;;
48847;SDS011;36611;51.638;5.784;2022-10-16T01:12:06;4.95;;;2.50;;
48847;SDS011;36611;51.638;5.784;2022-10-16T01:14:42;2.78;;;2.30;;
48847;SDS011;36611;51.638;5.784;2022-10-16T01:17:28;4.57;;;2.65;;
48847;SDS011;36611;51.638;5.784;2022-10-16T01:20:20;3.53;;;2.40;;
48847;SDS011;36611;51.638;5.784;2022-10-16T01:22:59;4.30;;;2.30;;
48847;SDS011;36611;51.638;5.784;2022-10-16T01:28:37;5.68;;;2.42;;
48847;SDS011;36611;51.638;5.784;2022-10-16T01:31:08;4.38;;;2.15;;
48847;SDS011;36611;51.638;5.784;2022-10-16T01:33:56;4.85;;;2.25;;
48847;SDS011;36611;51.638;5.784;2022-10-16T01:37:38;3.95;;;2.20;;
48847;SDS011;36611;51.638;5.784;2022-10-16T01:40:13;4.97;;;2.33;;
48847;SDS011;36611;51.638;5.784;2022-10-16T01:42:44;4.05;;;2.00;;
48847;SDS011;36611;51.638;5.784;2022-10-16T01:45:15;6.95;;;2.20;;
48847;SDS011;36611;51.638;5.784;2022-10-16T01:47:45;3.88;;;2.30;;
48847;SDS011;36611;51.638;5.784;2022-10-16T01:50:14;5.20;;;2.45;;
48847;SDS011;36611;51.638;5.784;2022-10-16T01:52:43;4.35;;;2.53;;
48847;SDS011;36611;51.638;5.784;2022-10-16T01:55:16;4.60;;;2.00;;
48847;SDS011;36611;51.638;5.784;2022-10-16T01:57:47;2.83;;;2.10;;
48847;SDS011;36611;51.638;5.784;2022-10-16T02:00:16;5.18;;;2.50;;
48847;SDS011;36611;51.638;5.784;2022-10-16T02:02:47;5.07;;;2.60;;
48847;SDS011;36611;51.638;5.784;2022-10-16T02:05:22;4.03;;;2.20;;
48847;SDS011;36611;51.638;5.784;2022-10-16T02:07:54;4.55;;;2.20;;
48847;SDS011;36611;51.638;5.784;2022-10-16T02:10:22;5.07;;;2.00;;
48847;SDS011;36611;51.638;5.784;2022-10-16T02:12:55;2.67;;;2.08;;
48847;SDS011;36611;51.638;5.784;2022-10-16T02:15:27;2.13;;;1.92;;
48847;SDS011;36611;51.638;5.784;2022-10-16T02:17:54;3.50;;;2.22;;
48847;SDS011;36611;51.638;5.784;2022-10-16T02:20:22;5.75;;;2.13;;
48847;SDS011;36611;51.638;5.784;2022-10-16T02:22:52;3.05;;;2.17;;
48847;SDS011;36611;51.638;5.784;2022-10-16T02:25:27;3.60;;;2.08;;
48847;SDS011;36611;51.638;5.784;2022-10-16T02:27:59;4.22;;;2.30;;
48847;SDS011;36611;51.638;5.784;2022-10-16T02:30:36;2.80;;;2.03;;
48847;SDS011;36611;51.638;5.784;2022-10-16T02:33:09;2.03;;;1.70;;
48847;SDS011;36611;51.638;5.784;2022-10-16T02:35:40;3.88;;;2.50;;
48847;SDS011;36611;51.638;5.784;2022-10-16T02:38:08;4.18;;;1.85;;
48847;SDS011;36611;51.638;5.784;2022-10-16T02:40:40;2.55;;;1.92;;
48847;SDS011;36611;51.638;5.784;2022-10-16T02:43:08;2.97;;;1.85;;
48847;SDS011;36611;51.638;5.784;2022-10-16T02:45:37;3.20;;;1.52;;
48847;SDS011;36611;51.638;5.784;2022-10-16T02:48:04;2.13;;;1.70;;
48847;SDS011;36611;51.638;5.784;2022-10-16T02:50:30;2.20;;;2.00;;
48847;SDS011;36611;51.638;5.784;2022-10-16T02:52:57;2.10;;;1.70;;
48847;SDS011;36611;51.638;5.784;2022-10-16T02:55:25;4.65;;;1.70;;
48847;SDS011;36611;51.638;5.784;2022-10-16T02:57:52;3.42;;;2.00;;
48847;SDS011;36611;51.638;5.784;2022-10-16T03:00:19;3.00;;;1.70;;
48847;SDS011;36611;51.638;5.784;2022-10-16T03:02:46;3.30;;;1.98;;
48847;SDS011;36611;51.638;5.784;2022-10-16T03:05:14;2.10;;;1.80;;
48847;SDS011;36611;51.638;5.784;2022-10-16T03:07:41;3.10;;;1.77;;
48847;SDS011;36611;51.638;5.784;2022-10-16T03:10:08;3.90;;;2.00;;
48847;SDS011;36611;51.638;5.784;2022-10-16T03:12:34;2.40;;;1.83;;
48847;SDS011;36611;51.638;5.784;2022-10-16T03:15:02;2.28;;;1.63;;
48847;SDS011;36611;51.638;5.784;2022-10-16T03:17:29;2.78;;;1.88;;
48847;SDS011;36611;51.638;5.784;2022-10-16T03:19:56;4.00;;;1.70;;
48847;SDS011;36611;51.638;5.784;2022-10-16T03:22:22;3.40;;;2.28;;
48847;SDS011;36611;51.638;5.784;2022-10-16T03:24:52;3.55;;;1.90;;
48847;SDS011;36611;51.638;5.784;2022-10-16T03:27:18;5.18;;;1.90;;
48847;SDS011;36611;51.638;5.784;2022-10-16T03:29:45;2.35;;;1.70;;
48847;SDS011;36611;51.638;5.784;2022-10-16T03:32:11;3.05;;;1.70;;
48847;SDS011;36611;51.638;5.784;2022-10-16T03:34:42;3.00;;;1.60;;
48847;SDS011;36611;51.638;5.784;2022-10-16T03:37:09;4.57;;;2.17;;
48847;SDS011;36611;51.638;5.784;2022-10-16T03:39:35;2.47;;;1.70;;
48847;SDS011;36611;51.638;5.784;2022-10-16T03:42:02;2.78;;;1.75;;
48847;SDS011;36611;51.638;5.784;2022-10-16T03:44:33;3.03;;;1.73;;
48847;SDS011;36611;51.638;5.784;2022-10-16T03:47:00;2.55;;;1.88;;
48847;SDS011;36611;51.638;5.784;2022-10-16T03:49:26;4.10;;;2.17;;
48847;SDS011;36611;51.638;5.784;2022-10-16T03:51:53;8.30;;;2.58;;
48847;SDS011;36611;51.638;5.784;2022-10-16T03:54:20;3.53;;;1.80;;
48847;SDS011;36611;51.638;5.784;2022-10-16T03:56:48;4.22;;;1.73;;
48847;SDS011;36611;51.638;5.784;2022-10-16T03:59:14;2.50;;;1.70;;
48847;SDS011;36611;51.638;5.784;2022-10-16T04:01:41;3.28;;;1.95;;
48847;SDS011;36611;51.638;5.784;2022-10-16T04:04:14;3.72;;;2.00;;
48847;SDS011;36611;51.638;5.784;2022-10-16T04:06:40;3.25;;;1.90;;
48847;SDS011;36611;51.638;5.784;2022-10-16T04:09:07;4.35;;;1.95;;
48847;SDS011;36611;51.638;5.784;2022-10-16T04:11:33;2.85;;;1.83;;
48847;SDS011;36611;51.638;5.784;2022-10-16T04:14:02;2.13;;;1.70;;
48847;SDS011;36611;51.638;5.784;2022-10-16T04:16:28;2.20;;;1.60;;
48847;SDS011;36611;51.638;5.784;2022-10-16T04:18:55;2.63;;;1.73;;
48847;SDS011;36611;51.638;5.784;2022-10-16T04:21:21;3.20;;;1.60;;
48847;SDS011;36611;51.638;5.784;2022-10-16T04:23:48;3.92;;;1.70;;
48847;SDS011;36611;51.638;5.784;2022-10-16T04:26:33;4.82;;;1.65;;
48847;SDS011;36611;51.638;5.784;2022-10-16T04:29:00;2.22;;;1.80;;
48847;SDS011;36611;51.638;5.784;2022-10-16T04:31:27;2.88;;;1.67;;
48847;SDS011;36611;51.638;5.784;2022-10-16T04:33:57;2.97;;;1.83;;
48847;SDS011;36611;51.638;5.784;2022-10-16T04:36:24;2.47;;;1.75;;
48847;SDS011;36611;51.638;5.784;2022-10-16T04:38:54;2.60;;;1.60;;
48847;SDS011;36611;51.638;5.784;2022-10-16T04:41:21;3.75;;;1.83;;
48847;SDS011;36611;51.638;5.784;2022-10-16T04:43:47;4.32;;;1.63;;
48847;SDS011;36611;51.638;5.784;2022-10-16T04:46:22;2.88;;;1.70;;
48847;SDS011;36611;51.638;5.784;2022-10-16T04:48:49;3.72;;;1.90;;
48847;SDS011;36611;51.638;5.784;2022-10-16T04:51:15;4.93;;;2.08;;
48847;SDS011;36611;51.638;5.784;2022-10-16T04:53:42;5.03;;;1.90;;
48847;SDS011;36611;51.638;5.784;2022-10-16T04:56:10;3.65;;;1.70;;
48847;SDS011;36611;51.638;5.784;2022-10-16T04:58:36;5.18;;;1.80;;
48847;SDS011;36611;51.638;5.784;2022-10-16T05:01:03;3.15;;;1.80;;
48847;SDS011;36611;51.638;5.784;2022-10-16T05:03:29;2.80;;;1.80;;
48847;SDS011;36611;51.638;5.784;2022-10-16T05:05:56;2.90;;;1.75;;
48847;SDS011;36611;51.638;5.784;2022-10-16T05:08:22;3.65;;;1.70;;
48847;SDS011;36611;51.638;5.784;2022-10-16T05:10:49;4.80;;;1.60;;
48847;SDS011;36611;51.638;5.784;2022-10-16T05:13:16;5.10;;;2.08;;
48847;SDS011;36611;51.638;5.784;2022-10-16T05:15:46;4.85;;;1.73;;
48847;SDS011;36611;51.638;5.784;2022-10-16T05:18:14;2.55;;;1.80;;
48847;SDS011;36611;51.638;5.784;2022-10-16T05:20:42;2.58;;;1.77;;
48847;SDS011;36611;51.638;5.784;2022-10-16T05:23:08;2.08;;;1.48;;
48847;SDS011;36611;51.638;5.784;2022-10-16T05:25:53;4.72;;;1.83;;
48847;SDS011;36611;51.638;5.784;2022-10-16T05:28:21;3.53;;;1.90;;
48847;SDS011;36611;51.638;5.784;2022-10-16T05:30:48;2.55;;;1.45;;
48847;SDS011;36611;51.638;5.784;2022-10-16T05:33:14;4.68;;;2.20;;
48847;SDS011;36611;51.638;5.784;2022-10-16T05:35:43;3.90;;;1.73;;
48847;SDS011;36611;51.638;5.784;2022-10-16T05:38:10;3.78;;;1.60;;
48847;SDS011;36611;51.638;5.784;2022-10-16T05:40:36;5.55;;;1.80;;
48847;SDS011;36611;51.638;5.784;2022-10-16T05:43:03;3.05;;;1.50;;
48847;SDS011;36611;51.638;5.784;2022-10-16T05:45:41;2.90;;;1.80;;
48847;SDS011;36611;51.638;5.784;2022-10-16T05:48:08;3.33;;;2.00;;
48847;SDS011;36611;51.638;5.784;2022-10-16T05:50:34;3.40;;;1.80;;
48847;SDS011;36611;51.638;5.784;2022-10-16T05:53:01;4.00;;;1.90;;
48847;SDS011;36611;51.638;5.784;2022-10-16T05:55:27;3.92;;;1.92;;
48847;SDS011;36611;51.638;5.784;2022-10-16T05:57:54;3.45;;;2.00;;
48847;SDS011;36611;51.638;5.784;2022-10-16T06:00:21;3.92;;;2.10;;
48847;SDS011;36611;51.638;5.784;2022-10-16T06:02:47;4.07;;;2.00;;
48847;SDS011;36611;51.638;5.784;2022-10-16T06:05:16;2.85;;;1.83;;
48847;SDS011;36611;51.638;5.784;2022-10-16T06:07:42;2.88;;;1.83;;
48847;SDS011;36611;51.638;5.784;2022-10-16T06:10:09;4.43;;;2.00;;
48847;SDS011;36611;51.638;5.784;2022-10-16T06:12:35;2.53;;;1.58;;
48847;SDS011;36611;51.638;5.784;2022-10-16T06:15:04;3.08;;;1.75;;
48847;SDS011;36611;51.638;5.784;2022-10-16T06:17:30;4.47;;;2.05;;
48847;SDS011;36611;51.638;5.784;2022-10-16T06:19:57;3.05;;;1.95;;
48847;SDS011;36611;51.638;5.784;2022-10-16T06:22:23;8.80;;;2.47;;
48847;SDS011;36611;51.638;5.784;2022-10-16T06:24:50;2.65;;;1.63;;
48847;SDS011;36611;51.638;5.784;2022-10-16T06:27:16;4.00;;;1.92;;
48847;SDS011;36611;51.638;5.784;2022-10-16T06:29:43;3.65;;;2.10;;
48847;SDS011;36611;51.638;5.784;2022-10-16T06:32:11;2.40;;;1.80;;
48847;SDS011;36611;51.638;5.784;2022-10-16T06:34:38;4.97;;;1.85;;
48847;SDS011;36611;51.638;5.784;2022-10-16T06:37:09;4.05;;;2.10;;
48847;SDS011;36611;51.638;5.784;2022-10-16T06:39:35;4.00;;;1.92;;
48847;SDS011;36611;51.638;5.784;2022-10-16T06:42:02;3.22;;;2.03;;
48847;SDS011;36611;51.638;5.784;2022-10-16T06:44:38;2.63;;;1.77;;
48847;SDS011;36611;51.638;5.784;2022-10-16T06:47:05;3.70;;;2.20;;
48847;SDS011;36611;51.638;5.784;2022-10-16T06:49:32;5.15;;;2.20;;
48847;SDS011;36611;51.638;5.784;2022-10-16T06:51:59;4.28;;;2.33;;
48847;SDS011;36611;51.638;5.784;2022-10-16T06:54:28;4.57;;;2.20;;
48847;SDS011;36611;51.638;5.784;2022-10-16T06:56:55;3.85;;;2.33;;
48847;SDS011;36611;51.638;5.784;2022-10-16T06:59:22;4.97;;;2.22;;
48847;SDS011;36611;51.638;5.784;2022-10-16T07:01:49;3.75;;;2.30;;
48847;SDS011;36611;51.638;5.784;2022-10-16T07:04:16;3.55;;;2.47;;
48847;SDS011;36611;51.638;5.784;2022-10-16T07:06:43;6.63;;;2.08;;
48847;SDS011;36611;51.638;5.784;2022-10-16T07:09:10;3.28;;;2.28;;
48847;SDS011;36611;51.638;5.784;2022-10-16T07:11:37;4.22;;;1.92;;
48847;SDS011;36611;51.638;5.784;2022-10-16T07:14:16;3.95;;;2.25;;
48847;SDS011;36611;51.638;5.784;2022-10-16T07:16:45;4.28;;;1.80;;
48847;SDS011;36611;51.638;5.784;2022-10-16T07:19:12;4.80;;;2.42;;
48847;SDS011;36611;51.638;5.784;2022-10-16T07:21:41;4.63;;;2.30;;
48847;SDS011;36611;51.638;5.784;2022-10-16T07:24:12;3.92;;;1.92;;
48847;SDS011;36611;51.638;5.784;2022-10-16T07:26:42;2.92;;;2.00;;
48847;SDS011;36611;51.638;5.784;2022-10-16T07:29:14;6.50;;;2.28;;
48847;SDS011;36611;51.638;5.784;2022-10-16T07:31:43;6.93;;;2.50;;
48847;SDS011;36611;51.638;5.784;2022-10-16T07:34:15;4.40;;;2.05;;
48847;SDS011;36611;51.638;5.784;2022-10-16T07:36:43;3.88;;;2.25;;
48847;SDS011;36611;51.638;5.784;2022-10-16T07:39:10;5.07;;;2.40;;
48847;SDS011;36611;51.638;5.784;2022-10-16T07:41:36;3.10;;;2.10;;
48847;SDS011;36611;51.638;5.784;2022-10-16T07:44:07;3.50;;;1.92;;
48847;SDS011;36611;51.638;5.784;2022-10-16T07:46:34;4.30;;;2.50;;
48847;SDS011;36611;51.638;5.784;2022-10-16T07:49:02;4.57;;;1.95;;
48847;SDS011;36611;51.638;5.784;2022-10-16T07:51:29;2.65;;;2.33;;
48847;SDS011;36611;51.638;5.784;2022-10-16T07:53:57;5.93;;;2.13;;
48847;SDS011;36611;51.638;5.784;2022-10-16T07:56:24;4.15;;;2.10;;
48847;SDS011;36611;51.638;5.784;2022-10-16T07:58:51;2.83;;;1.90;;
48847;SDS011;36611;51.638;5.784;2022-10-16T08:01:18;3.63;;;1.95;;
48847;SDS011;36611;51.638;5.784;2022-10-16T08:03:47;5.05;;;1.95;;
48847;SDS011;36611;51.638;5.784;2022-10-16T08:06:23;2.45;;;1.73;;
48847;SDS011;36611;51.638;5.784;2022-10-16T08:08:53;4.53;;;1.92;;
48847;SDS011;36611;51.638;5.784;2022-10-16T08:11:20;3.17;;;2.00;;
48847;SDS011;36611;51.638;5.784;2022-10-16T08:13:46;3.10;;;1.60;;
48847;SDS011;36611;51.638;5.784;2022-10-16T08:16:13;2.17;;;1.55;;
48847;SDS011;36611;51.638;5.784;2022-10-16T08:18:40;5.40;;;1.83;;
48847;SDS011;36611;51.638;5.784;2022-10-16T08:21:08;4.30;;;1.38;;
48847;SDS011;36611;51.638;5.784;2022-10-16T08:23:46;3.30;;;1.67;;
48847;SDS011;36611;51.638;5.784;2022-10-16T08:26:25;5.88;;;1.67;;
48847;SDS011;36611;51.638;5.784;2022-10-16T08:28:52;2.88;;;1.60;;
48847;SDS011;36611;51.638;5.784;2022-10-16T08:31:19;5.18;;;1.52;;
48847;SDS011;36611;51.638;5.784;2022-10-16T08:33:46;3.92;;;1.55;;
48847;SDS011;36611;51.638;5.784;2022-10-16T08:36:14;6.55;;;1.98;;
48847;SDS011;36611;51.638;5.784;2022-10-16T08:38:41;4.35;;;1.65;;
48847;SDS011;36611;51.638;5.784;2022-10-16T08:44:15;2.92;;;1.50;;
48847;SDS011;36611;51.638;5.784;2022-10-16T08:49:53;8.85;;;2.03;;
48847;SDS011;36611;51.638;5.784;2022-10-16T08:52:25;3.90;;;1.58;;
48847;SDS011;36611;51.638;5.784;2022-10-16T08:54:58;2.38;;;1.52;;
48847;SDS011;36611;51.638;5.784;2022-10-16T08:57:25;4.47;;;1.38;;
48847;SDS011;36611;51.638;5.784;2022-10-16T08:59:53;3.63;;;1.25;;
48847;SDS011;36611;51.638;5.784;2022-10-16T09:05:05;3.60;;;1.63;;
48847;SDS011;36611;51.638;5.784;2022-10-16T09:10:38;1.97;;;1.40;;
48847;SDS011;36611;51.638;5.784;2022-10-16T09:13:22;8.27;;;2.15;;
48847;SDS011;36611;51.638;5.784;2022-10-16T09:16:06;3.65;;;1.70;;
48847;SDS011;36611;51.638;5.784;2022-10-16T09:21:32;3.50;;;1.50;;
48847;SDS011;36611;51.638;5.784;2022-10-16T09:24:23;3.95;;;1.50;;
48847;SDS011;36611;51.638;5.784;2022-10-16T09:26:54;5.63;;;1.88;;
48847;SDS011;36611;51.638;5.784;2022-10-16T09:29:21;3.13;;;1.20;;
48847;SDS011;36611;51.638;5.784;2022-10-16T09:31:49;4.75;;;1.50;;
48847;SDS011;36611;51.638;5.784;2022-10-16T09:34:36;4.63;;;1.58;;
48847;SDS011;36611;51.638;5.784;2022-10-16T09:37:12;4.78;;;1.60;;
48847;SDS011;36611;51.638;5.784;2022-10-16T09:39:46;7.75;;;1.70;;
48847;SDS011;36611;51.638;5.784;2022-10-16T09:42:18;5.28;;;1.70;;
48847;SDS011;36611;51.638;5.784;2022-10-16T09:44:48;4.15;;;1.60;;
48847;SDS011;36611;51.638;5.784;2022-10-16T09:47:28;6.78;;;1.40;;
48847;SDS011;36611;51.638;5.784;2022-10-16T09:52:28;4.35;;;1.40;;
48847;SDS011;36611;51.638;5.784;2022-10-16T09:54:57;4.78;;;1.42;;
48847;SDS011;36611;51.638;5.784;2022-10-16T09:58:00;4.70;;;1.33;;
48847;SDS011;36611;51.638;5.784;2022-10-16T10:00:25;3.08;;;1.60;;
48847;SDS011;36611;51.638;5.784;2022-10-16T10:02:52;4.07;;;1.40;;
48847;SDS011;36611;51.638;5.784;2022-10-16T10:05:26;6.30;;;1.25;;
48847;SDS011;36611;51.638;5.784;2022-10-16T10:07:55;5.45;;;1.77;;
48847;SDS011;36611;51.638;5.784;2022-10-16T10:10:25;5.80;;;1.65;;
48847;SDS011;36611;51.638;5.784;2022-10-16T10:12:54;3.40;;;1.30;;
48847;SDS011;36611;51.638;5.784;2022-10-16T10:15:24;3.83;;;1.42;;
48847;SDS011;36611;51.638;5.784;2022-10-16T10:17:54;4.43;;;1.52;;
48847;SDS011;36611;51.638;5.784;2022-10-16T10:20:33;7.07;;;1.60;;
48847;SDS011;36611;51.638;5.784;2022-10-16T10:23:13;8.05;;;2.08;;
48847;SDS011;36611;51.638;5.784;2022-10-16T10:26:01;6.80;;;2.67;;
48847;SDS011;36611;51.638;5.784;2022-10-16T10:28:55;9.18;;;3.75;;
48847;SDS011;36611;51.638;5.784;2022-10-16T10:31:37;8.52;;;2.80;;
48847;SDS011;36611;51.638;5.784;2022-10-16T10:45:24;6.93;;;2.45;;
48847;SDS011;36611;51.638;5.784;2022-10-16T10:48:57;5.85;;;2.65;;
48847;SDS011;36611;51.638;5.784;2022-10-16T10:51:05;12.57;;;2.72;;
48847;SDS011;36611;51.638;5.784;2022-10-16T10:57:00;6.57;;;1.73;;
48847;SDS011;36611;51.638;5.784;2022-10-16T11:00:22;8.98;;;2.22;;
48847;SDS011;36611;51.638;5.784;2022-10-16T11:05:40;5.72;;;2.17;;
48847;SDS011;36611;51.638;5.784;2022-10-16T11:08:19;7.15;;;2.38;;
48847;SDS011;36611;51.638;5.784;2022-10-16T11:10:53;8.02;;;1.80;;
48847;SDS011;36611;51.638;5.784;2022-10-16T11:16:28;9.98;;;3.00;;
48847;SDS011;36611;51.638;5.784;2022-10-16T11:22:04;5.15;;;1.63;;
48847;SDS011;36611;51.638;5.784;2022-10-16T11:24:35;6.25;;;2.25;;
48847;SDS011;36611;51.638;5.784;2022-10-16T11:27:16;4.57;;;1.70;;
48847;SDS011;36611;51.638;5.784;2022-10-16T11:29:58;7.85;;;1.77;;
48847;SDS011;36611;51.638;5.784;2022-10-16T11:32:35;5.07;;;1.63;;
48847;SDS011;36611;51.638;5.784;2022-10-16T11:35:14;8.68;;;1.85;;
48847;SDS011;36611;51.638;5.784;2022-10-16T11:37:48;7.85;;;2.05;;
48847;SDS011;36611;51.638;5.784;2022-10-16T11:40:25;12.25;;;1.67;;
48847;SDS011;36611;51.638;5.784;2022-10-16T11:42:58;6.53;;;1.77;;
48847;SDS011;36611;51.638;5.784;2022-10-16T11:48:17;8.30;;;2.00;;
48847;SDS011;36611;51.638;5.784;2022-10-16T11:53:41;5.95;;;1.75;;
48847;SDS011;36611;51.638;5.784;2022-10-16T11:56:29;9.32;;;1.88;;
48847;SDS011;36611;51.638;5.784;2022-10-16T11:59:00;6.80;;;1.80;;
48847;SDS011;36611;51.638;5.784;2022-10-16T12:01:33;13.57;;;1.90;;
48847;SDS011;36611;51.638;5.784;2022-10-16T12:06:53;10.40;;;2.05;;
48847;SDS011;36611;51.638;5.784;2022-10-16T12:09:26;7.18;;;1.67;;
48847;SDS011;36611;51.638;5.784;2022-10-16T12:11:53;7.07;;;1.90;;
48847;SDS011;36611;51.638;5.784;2022-10-16T12:14:33;5.75;;;1.75;;
48847;SDS011;36611;51.638;5.784;2022-10-16T12:22:47;8.32;;;1.83;;
48847;SDS011;36611;51.638;5.784;2022-10-16T12:25:25;7.80;;;1.80;;
48847;SDS011;36611;51.638;5.784;2022-10-16T12:27:55;7.18;;;1.88;;
48847;SDS011;36611;51.638;5.784;2022-10-16T12:30:23;9.35;;;1.98;;
48847;SDS011;36611;51.638;5.784;2022-10-16T12:33:00;8.38;;;1.85;;
48847;SDS011;36611;51.638;5.784;2022-10-16T12:35:35;5.05;;;1.80;;
48847;SDS011;36611;51.638;5.784;2022-10-16T12:40:55;7.70;;;2.15;;
48847;SDS011;36611;51.638;5.784;2022-10-16T12:43:27;4.70;;;1.48;;
48847;SDS011;36611;51.638;5.784;2022-10-16T12:46:23;6.57;;;1.75;;
48847;SDS011;36611;51.638;5.784;2022-10-16T12:49:19;9.25;;;2.20;;
48847;SDS011;36611;51.638;5.784;2022-10-16T12:51:50;9.40;;;2.65;;
48847;SDS011;36611;51.638;5.784;2022-10-16T12:54:22;8.85;;;1.88;;
48847;SDS011;36611;51.638;5.784;2022-10-16T12:59:48;7.53;;;1.90;;
48847;SDS011;36611;51.638;5.784;2022-10-16T13:05:18;6.88;;;1.30;;
48847;SDS011;36611;51.638;5.784;2022-10-16T13:19:18;6.35;;;1.40;;
48847;SDS011;36611;51.638;5.784;2022-10-16T13:22:05;6.05;;;1.13;;
48847;SDS011;36611;51.638;5.784;2022-10-16T13:27:52;5.65;;;1.10;;
48847;SDS011;36611;51.638;5.784;2022-10-16T13:30:39;3.45;;;1.33;;
48847;SDS011;36611;51.638;5.784;2022-10-16T13:33:12;5.95;;;1.50;;
48847;SDS011;36611;51.638;5.784;2022-10-16T13:35:52;3.42;;;1.50;;
48847;SDS011;36611;51.638;5.784;2022-10-16T13:38:22;4.40;;;1.50;;
48847;SDS011;36611;51.638;5.784;2022-10-16T13:40:59;4.93;;;1.00;;
48847;SDS011;36611;51.638;5.784;2022-10-16T13:43:34;7.20;;;1.63;;
48847;SDS011;36611;51.638;5.784;2022-10-16T13:46:05;5.47;;;1.50;;
48847;SDS011;36611;51.638;5.784;2022-10-16T13:48:37;6.70;;;2.45;;
48847;SDS011;36611;51.638;5.784;2022-10-16T13:51:14;4.68;;;1.40;;
48847;SDS011;36611;51.638;5.784;2022-10-16T13:53:42;7.85;;;1.38;;
48847;SDS011;36611;51.638;5.784;2022-10-16T13:56:11;5.15;;;1.33;;
48847;SDS011;36611;51.638;5.784;2022-10-16T13:58:42;5.72;;;1.30;;
48847;SDS011;36611;51.638;5.784;2022-10-16T14:01:23;5.50;;;1.80;;
48847;SDS011;36611;51.638;5.784;2022-10-16T14:04:02;4.97;;;1.45;;
48847;SDS011;36611;51.638;5.784;2022-10-16T14:06:32;6.43;;;1.25;;
48847;SDS011;36611;51.638;5.784;2022-10-16T14:09:09;7.55;;;1.30;;
48847;SDS011;36611;51.638;5.784;2022-10-16T14:11:49;6.75;;;1.50;;
48847;SDS011;36611;51.638;5.784;2022-10-16T14:14:20;5.68;;;1.40;;
48847;SDS011;36611;51.638;5.784;2022-10-16T14:16:48;6.53;;;1.52;;
48847;SDS011;36611;51.638;5.784;2022-10-16T14:19:19;5.88;;;1.30;;
48847;SDS011;36611;51.638;5.784;2022-10-16T14:21:47;6.65;;;1.63;;
48847;SDS011;36611;51.638;5.784;2022-10-16T14:24:49;3.85;;;1.02;;
48847;SDS011;36611;51.638;5.784;2022-10-16T14:27:30;7.72;;;1.30;;
48847;SDS011;36611;51.638;5.784;2022-10-16T14:30:08;4.72;;;1.27;;
48847;SDS011;36611;51.638;5.784;2022-10-16T14:32:52;4.05;;;1.42;;
48847;SDS011;36611;51.638;5.784;2022-10-16T14:35:36;6.20;;;1.60;;
48847;SDS011;36611;51.638;5.784;2022-10-16T14:38:05;6.45;;;1.58;;
48847;SDS011;36611;51.638;5.784;2022-10-16T14:40:45;5.45;;;1.30;;
48847;SDS011;36611;51.638;5.784;2022-10-16T14:43:14;5.90;;;1.58;;
48847;SDS011;36611;51.638;5.784;2022-10-16T14:45:51;4.85;;;1.08;;
48847;SDS011;36611;51.638;5.784;2022-10-16T14:48:20;4.03;;;1.30;;
48847;SDS011;36611;51.638;5.784;2022-10-16T14:50:47;3.20;;;1.08;;
48847;SDS011;36611;51.638;5.784;2022-10-16T14:53:13;5.80;;;1.42;;
48847;SDS011;36611;51.638;5.784;2022-10-16T14:55:40;6.75;;;1.50;;
48847;SDS011;36611;51.638;5.784;2022-10-16T14:58:10;5.22;;;1.27;;
48847;SDS011;36611;51.638;5.784;2022-10-16T15:00:44;3.97;;;1.25;;
48847;SDS011;36611;51.638;5.784;2022-10-16T15:03:10;3.25;;;1.00;;
48847;SDS011;36611;51.638;5.784;2022-10-16T15:05:37;2.55;;;1.00;;
48847;SDS011;36611;51.638;5.784;2022-10-16T15:08:04;2.90;;;0.80;;
48847;SDS011;36611;51.638;5.784;2022-10-16T15:10:31;7.25;;;1.55;;
48847;SDS011;36611;51.638;5.784;2022-10-16T15:13:02;5.43;;;1.50;;
48847;SDS011;36611;51.638;5.784;2022-10-16T15:15:42;3.65;;;0.95;;
48847;SDS011;36611;51.638;5.784;2022-10-16T15:18:10;5.10;;;1.33;;
48847;SDS011;36611;51.638;5.784;2022-10-16T15:20:37;6.13;;;1.40;;
48847;SDS011;36611;51.638;5.784;2022-10-16T15:23:08;5.60;;;1.65;;
48847;SDS011;36611;51.638;5.784;2022-10-16T15:25:47;7.90;;;1.58;;
48847;SDS011;36611;51.638;5.784;2022-10-16T15:28:14;4.27;;;1.17;;
48847;SDS011;36611;51.638;5.784;2022-10-16T15:30:42;5.32;;;1.17;;
48847;SDS011;36611;51.638;5.784;2022-10-16T15:33:12;4.07;;;1.10;;
48847;SDS011;36611;51.638;5.784;2022-10-16T15:35:47;4.07;;;1.42;;
48847;SDS011;36611;51.638;5.784;2022-10-16T15:38:18;8.18;;;1.30;;
48847;SDS011;36611;51.638;5.784;2022-10-16T15:40:46;2.88;;;1.10;;
48847;SDS011;36611;51.638;5.784;2022-10-16T15:43:14;4.40;;;1.10;;
48847;SDS011;36611;51.638;5.784;2022-10-16T15:45:42;3.80;;;1.02;;
48847;SDS011;36611;51.638;5.784;2022-10-16T15:48:11;5.07;;;1.05;;
48847;SDS011;36611;51.638;5.784;2022-10-16T15:50:39;2.58;;;1.10;;
48847;SDS011;36611;51.638;5.784;2022-10-16T15:53:06;4.18;;;1.00;;
48847;SDS011;36611;51.638;5.784;2022-10-16T15:55:33;5.90;;;1.20;;
48847;SDS011;36611;51.638;5.784;2022-10-16T15:58:00;6.05;;;1.20;;
48847;SDS011;36611;51.638;5.784;2022-10-16T16:00:26;3.63;;;0.82;;
48847;SDS011;36611;51.638;5.784;2022-10-16T16:02:53;3.30;;;1.02;;
48847;SDS011;36611;51.638;5.784;2022-10-16T16:05:23;2.38;;;0.90;;
48847;SDS011;36611;51.638;5.784;2022-10-16T16:07:50;2.42;;;1.00;;
48847;SDS011;36611;51.638;5.784;2022-10-16T16:10:17;1.98;;;0.88;;
48847;SDS011;36611;51.638;5.784;2022-10-16T16:12:45;4.35;;;1.00;;
48847;SDS011;36611;51.638;5.784;2022-10-16T16:15:21;3.88;;;1.10;;
48847;SDS011;36611;51.638;5.784;2022-10-16T16:17:48;3.28;;;1.00;;
48847;SDS011;36611;51.638;5.784;2022-10-16T16:20:15;2.28;;;1.00;;
48847;SDS011;36611;51.638;5.784;2022-10-16T16:22:42;5.38;;;1.25;;
48847;SDS011;36611;51.638;5.784;2022-10-16T16:25:09;2.20;;;0.93;;
48847;SDS011;36611;51.638;5.784;2022-10-16T16:27:35;2.67;;;1.10;;
48847;SDS011;36611;51.638;5.784;2022-10-16T16:30:05;1.75;;;0.80;;
48847;SDS011;36611;51.638;5.784;2022-10-16T16:32:34;2.30;;;1.23;;
48847;SDS011;36611;51.638;5.784;2022-10-16T16:35:01;2.90;;;1.20;;
48847;SDS011;36611;51.638;5.784;2022-10-16T16:37:28;5.35;;;1.10;;
48847;SDS011;36611;51.638;5.784;2022-10-16T16:39:55;4.30;;;1.48;;